Time;durP1;ratioP1;P1;durP2;ratioP2;P2;SDS_P1;SDS_P2;PMS_P1;PMS_P2;Temp;Humidity;BMP_temperature;BMP_pressure;BME280_temperature;BME280_humidity;BME280_pressure;Samples;Min_cycle;Max_cycle;Signal;HPM_P1;HPM_P2
2021/01/18 00:01:35;;;;;;;9.48;4.18;;;6.10;99.90;;;;;;4732570;30;20453;-78
2021/01/18 00:04:02;;;;;;;8.07;4.63;;;6.10;99.90;;;;;;4730933;30;20390;-78
2021/01/18 00:06:28;;;;;;;8.45;4.35;;;6.10;99.90;;;;;;4731693;30;20340;-78
2021/01/18 00:08:54;;;;;;;10.23;4.10;;;6.10;99.90;;;;;;4731057;30;20052;-79
2021/01/18 00:11:21;;;;;;;7.80;4.28;;;6.00;99.90;;;;;;4729933;30;20039;-79
2021/01/18 00:13:49;;;;;;;8.48;4.47;;;6.00;99.90;;;;;;4731490;30;20383;-79
2021/01/18 00:16:18;;;;;;;5.95;4.07;;;6.00;99.90;;;;;;4720534;30;20069;-80
2021/01/18 00:18:44;;;;;;;9.40;4.10;;;6.00;99.90;;;;;;4731666;30;20039;-80
2021/01/18 00:21:10;;;;;;;8.32;3.97;;;5.90;99.90;;;;;;4732277;30;20487;-80
2021/01/18 00:23:40;;;;;;;10.50;4.43;;;5.90;99.90;;;;;;4731376;30;20087;-80
2021/01/18 00:26:07;;;;;;;5.88;4.13;;;5.80;99.90;;;;;;4731245;30;20028;-79
2021/01/18 00:28:34;;;;;;;5.70;3.67;;;5.80;99.90;;;;;;4739824;30;20041;-79
2021/01/18 00:31:04;;;;;;;5.90;3.28;;;5.70;99.90;;;;;;4733589;30;20486;-79
2021/01/18 00:33:34;;;;;;;7.05;3.30;;;5.70;99.90;;;;;;4730146;30;20045;-80
2021/01/18 00:36:01;;;;;;;5.43;3.25;;;5.60;99.90;;;;;;4730729;30;20033;-79
2021/01/18 00:38:27;;;;;;;5.47;3.28;;;5.60;99.90;;;;;;4715837;30;20036;-80
2021/01/18 00:40:53;;;;;;;7.97;3.58;;;5.60;99.90;;;;;;4730157;30;20589;-79
2021/01/18 00:43:19;;;;;;;5.10;3.33;;;5.70;99.90;;;;;;4728522;30;20037;-80
2021/01/18 00:45:45;;;;;;;5.68;3.20;;;5.70;99.90;;;;;;4740313;30;20040;-79
2021/01/18 00:48:11;;;;;;;7.97;3.95;;;5.70;99.90;;;;;;4709389;30;20049;-79
2021/01/18 00:50:37;;;;;;;7.03;4.43;;;5.70;99.90;;;;;;4725702;30;20041;-80
2021/01/18 00:53:04;;;;;;;11.35;4.35;;;5.80;99.90;;;;;;4725658;30;20039;-79
2021/01/18 00:55:33;;;;;;;10.88;5.32;;;5.70;99.90;;;;;;4724832;30;20433;-79
2021/01/18 00:58:20;;;;;;;8.57;4.95;;;5.70;99.90;;;;;;4726488;30;20068;-80
2021/01/18 01:01:05;;;;;;;7.13;5.05;;;5.60;99.90;;;;;;4733906;30;20032;-80
2021/01/18 01:03:33;;;;;;;9.88;5.03;;;5.60;99.90;;;;;;4741283;30;20086;-79
2021/01/18 01:05:59;;;;;;;14.43;4.85;;;5.60;99.90;;;;;;4733629;30;20044;-79
2021/01/18 01:08:25;;;;;;;8.18;4.18;;;5.50;99.90;;;;;;4728735;30;20048;-80
2021/01/18 01:10:51;;;;;;;8.77;4.60;;;5.50;99.90;;;;;;4733637;30;20054;-80
2021/01/18 01:13:17;;;;;;;8.57;4.50;;;5.40;99.90;;;;;;4726727;30;20107;-80
2021/01/18 01:15:43;;;;;;;10.18;5.03;;;5.30;99.90;;;;;;4732999;30;20060;-80
2021/01/18 01:18:09;;;;;;;13.80;5.15;;;5.30;99.90;;;;;;4733108;30;20039;-80
2021/01/18 01:20:35;;;;;;;7.55;4.13;;;5.30;99.90;;;;;;4734376;30;20076;-80
2021/01/18 01:23:01;;;;;;;8.43;4.30;;;5.30;99.90;;;;;;4736816;30;20036;-80
2021/01/18 01:25:27;;;;;;;7.55;4.18;;;5.30;99.90;;;;;;4724777;30;20041;-80
2021/01/18 01:27:54;;;;;;;6.88;4.40;;;5.30;99.90;;;;;;4716924;30;20119;-80
2021/01/18 01:30:25;;;;;;;6.97;4.22;;;5.30;99.90;;;;;;4734250;30;20086;-80
2021/01/18 01:32:53;;;;;;;7.90;4.70;;;5.30;99.90;;;;;;4733383;30;20041;-80
2021/01/18 01:35:23;;;;;;;11.38;4.35;;;5.40;99.90;;;;;;4732500;30;20453;-79
2021/01/18 01:37:49;;;;;;;9.00;4.63;;;5.50;99.90;;;;;;4718442;30;20578;-80
2021/01/18 01:40:16;;;;;;;8.25;3.92;;;5.50;99.90;;;;;;4732781;30;20395;-80
2021/01/18 01:42:43;;;;;;;7.00;4.07;;;5.60;99.90;;;;;;4734099;30;20395;-80
2021/01/18 01:45:11;;;;;;;7.18;3.97;;;5.60;99.90;;;;;;4726124;30;20123;-80
2021/01/18 01:47:41;;;;;;;6.68;4.00;;;5.60;99.90;;;;;;4732644;30;20087;-80
2021/01/18 01:50:14;;;;;;;8.75;4.60;;;5.50;99.90;;;;;;4721586;30;20375;-80
2021/01/18 01:53:03;;;;;;;7.97;3.85;;;5.50;99.90;;;;;;4733823;30;20025;-80
2021/01/18 01:55:31;;;;;;;9.60;4.82;;;5.50;99.90;;;;;;4721112;30;20044;-80
2021/01/18 01:58:02;;;;;;;6.30;4.00;;;5.50;99.90;;;;;;4747528;30;20025;-79
2021/01/18 02:00:36;;;;;;;8.73;3.90;;;5.50;99.90;;;;;;4726810;30;20047;-80
2021/01/18 02:03:09;;;;;;;6.25;3.92;;;5.50;99.90;;;;;;4732391;30;20040;-80
2021/01/18 02:05:36;;;;;;;8.18;3.92;;;5.50;99.90;;;;;;4740067;30;20048;-80
2021/01/18 02:08:04;;;;;;;7.47;3.65;;;5.50;99.90;;;;;;4733437;30;20128;-80
2021/01/18 02:10:31;;;;;;;6.72;3.55;;;5.50;99.90;;;;;;4732208;30;20044;-80
2021/01/18 02:13:18;;;;;;;7.85;3.97;;;5.50;99.90;;;;;;4717401;30;20033;-79
2021/01/18 02:16:04;;;;;;;7.90;4.22;;;5.50;99.90;;;;;;4731618;30;20579;-79
2021/01/18 02:18:39;;;;;;;7.38;3.70;;;5.50;99.90;;;;;;4733144;30;20071;-79
2021/01/18 02:21:35;;;;;;;5.60;3.90;;;5.50;99.90;;;;;;4734087;30;20577;-80
2021/01/18 02:24:28;;;;;;;7.47;3.47;;;5.50;99.90;;;;;;4730956;30;20035;-80
2021/01/18 02:27:00;;;;;;;8.27;3.70;;;5.40;99.90;;;;;;4750375;30;20040;-80
2021/01/18 02:30:09;;;;;;;7.18;3.45;;;5.40;99.90;;;;;;4749675;30;20048;-80
2021/01/18 02:33:13;;;;;;;4.95;3.13;;;5.40;99.90;;;;;;4706447;30;20057;-80
2021/01/18 02:36:16;;;;;;;5.65;3.05;;;5.40;99.90;;;;;;4728424;30;20051;-79
2021/01/18 02:39:13;;;;;;;7.30;2.88;;;5.40;99.90;;;;;;4729015;30;20127;-80
2021/01/18 02:41:49;;;;;;;5.40;3.00;;;5.40;99.90;;;;;;4729054;30;20033;-80
2021/01/18 02:44:20;;;;;;;4.70;2.83;;;5.40;99.90;;;;;;4714004;30;20060;-80
2021/01/18 02:46:48;;;;;;;5.78;3.03;;;5.40;99.90;;;;;;4737752;30;20044;-80
2021/01/18 02:49:17;;;;;;;4.80;2.78;;;5.40;99.90;;;;;;4749750;30;20047;-79
2021/01/18 02:51:55;;;;;;;5.30;2.63;;;5.40;99.90;;;;;;4738773;30;20390;-80
2021/01/18 02:54:21;;;;;;;5.78;2.83;;;5.40;99.90;;;;;;4731110;30;20064;-80
2021/01/18 02:56:53;;;;;;;4.57;2.40;;;5.40;99.90;;;;;;4734268;30;20485;-80
2021/01/18 02:59:20;;;;;;;5.75;2.97;;;5.40;99.90;;;;;;4749213;30;20040;-79
2021/01/18 03:02:16;;;;;;;4.97;3.00;;;5.40;99.90;;;;;;4739788;30;20025;-80
2021/01/18 03:05:27;;;;;;;5.60;3.15;;;5.30;99.90;;;;;;4730483;30;20044;-80
2021/01/18 03:08:04;;;;;;;4.68;2.35;;;5.30;99.90;;;;;;4743270;30;20040;-79
2021/01/18 03:10:40;;;;;;;6.80;2.80;;;5.20;99.90;;;;;;4749213;30;20128;-79
2021/01/18 03:13:31;;;;;;;6.30;2.70;;;5.20;99.90;;;;;;4717731;30;20120;-81
2021/01/18 03:16:04;;;;;;;7.10;3.20;;;5.20;99.90;;;;;;4723453;30;20065;-80
2021/01/18 03:18:33;;;;;;;5.15;3.13;;;5.20;99.90;;;;;;4717363;30;20059;-79
2021/01/18 03:21:01;;;;;;;7.43;3.88;;;5.20;99.90;;;;;;4750302;30;20035;-80
2021/01/18 03:23:27;;;;;;;6.88;3.28;;;5.20;99.90;;;;;;4732537;30;20505;-79
2021/01/18 03:25:55;;;;;;;9.02;3.20;;;5.10;99.90;;;;;;4730674;30;20434;-79
2021/01/18 03:28:23;;;;;;;4.63;2.60;;;5.10;99.90;;;;;;4743912;30;20476;-80
2021/01/18 03:30:50;;;;;;;6.47;3.40;;;5.00;99.90;;;;;;4749869;30;20032;-81
2021/01/18 03:33:16;;;;;;;5.10;2.90;;;5.00;99.90;;;;;;4736940;30;20048;-80
2021/01/18 03:35:43;;;;;;;5.18;3.10;;;4.90;99.90;;;;;;4715790;30;20108;-80
2021/01/18 03:38:10;;;;;;;5.53;3.53;;;4.90;99.90;;;;;;4717781;30;20046;-80
2021/01/18 03:40:37;;;;;;;6.63;2.92;;;4.90;99.90;;;;;;4748653;30;20548;-80
2021/01/18 03:43:07;;;;;;;7.75;3.05;;;4.90;99.90;;;;;;4725746;30;20135;-80
2021/01/18 03:45:43;;;;;;;5.15;2.85;;;4.90;99.90;;;;;;4731028;30;20446;-80
2021/01/18 03:48:10;;;;;;;7.72;2.90;;;4.90;99.90;;;;;;4729570;30;20620;-80
2021/01/18 03:50:37;;;;;;;5.55;3.00;;;4.90;99.90;;;;;;4733716;30;20032;-80
2021/01/18 03:53:05;;;;;;;5.65;2.88;;;4.80;99.90;;;;;;4743295;30;20032;-80
2021/01/18 03:55:31;;;;;;;4.30;2.72;;;4.70;99.90;;;;;;4730900;30;20479;-80
2021/01/18 03:57:58;;;;;;;4.65;2.72;;;4.60;99.90;;;;;;4723957;30;20024;-80
2021/01/18 04:00:26;;;;;;;6.25;3.13;;;4.60;99.90;;;;;;4719954;30;20028;-79
2021/01/18 04:02:53;;;;;;;6.35;3.03;;;4.50;99.90;;;;;;4746626;30;20032;-80
2021/01/18 04:05:20;;;;;;;7.47;2.83;;;4.50;99.90;;;;;;4731719;30;20032;-80
2021/01/18 04:07:48;;;;;;;5.05;3.30;;;4.50;99.90;;;;;;4729913;30;20040;-80
2021/01/18 04:10:17;;;;;;;6.40;2.67;;;4.50;99.90;;;;;;4743869;30;20032;-80
2021/01/18 04:12:44;;;;;;;6.78;3.38;;;4.50;99.90;;;;;;4716211;30;20037;-80
2021/01/18 04:15:12;;;;;;;6.30;3.25;;;4.50;99.90;;;;;;4730479;30;20044;-80
2021/01/18 04:17:43;;;;;;;4.22;3.20;;;4.60;99.90;;;;;;4730990;30;20568;-80
2021/01/18 04:20:10;;;;;;;8.20;3.20;;;4.60;99.90;;;;;;4732088;30;20043;-80
2021/01/18 04:22:42;;;;;;;5.05;2.67;;;4.60;99.90;;;;;;4730134;30;20069;-80
2021/01/18 04:25:09;;;;;;;4.55;2.78;;;4.60;99.90;;;;;;4748132;30;20040;-80
2021/01/18 04:27:35;;;;;;;5.43;2.80;;;4.60;99.90;;;;;;4730260;30;20383;-80
2021/01/18 04:30:02;;;;;;;7.50;3.17;;;4.60;99.90;;;;;;4740079;30;20561;-80
2021/01/18 04:32:28;;;;;;;5.50;2.55;;;4.60;99.90;;;;;;4726910;30;20072;-80
2021/01/18 04:34:54;;;;;;;5.07;2.40;;;4.60;99.90;;;;;;4726583;30;20068;-80
2021/01/18 04:37:20;;;;;;;4.88;2.63;;;4.60;99.90;;;;;;4712892;30;20069;-80
2021/01/18 04:39:46;;;;;;;7.50;3.38;;;4.30;99.90;;;;;;4724127;30;20501;-80
2021/01/18 04:42:12;;;;;;;6.43;3.38;;;4.20;99.90;;;;;;4723882;30;20076;-80
2021/01/18 04:44:39;;;;;;;6.53;3.47;;;4.00;99.90;;;;;;4732946;30;20060;-79
2021/01/18 04:47:09;;;;;;;6.78;3.28;;;3.80;99.90;;;;;;4712737;30;20045;-80
2021/01/18 04:49:35;;;;;;;6.90;3.03;;;3.90;99.90;;;;;;4716076;30;20140;-80
2021/01/18 04:52:11;;;;;;;6.45;3.58;;;3.90;99.90;;;;;;4725487;30;20234;-80
2021/01/18 04:54:43;;;;;;;4.43;2.88;;;4.00;99.90;;;;;;4715657;30;20032;-80
2021/01/18 04:57:24;;;;;;;4.07;2.55;;;4.20;99.90;;;;;;4729672;30;20079;-80
2021/01/18 05:00:00;;;;;;;6.18;2.88;;;4.30;99.90;;;;;;4731076;30;20118;-80
2021/01/18 05:02:38;;;;;;;3.97;2.15;;;4.40;99.90;;;;;;4725891;30;20041;-80
2021/01/18 05:05:21;;;;;;;5.80;2.42;;;4.50;99.90;;;;;;4729921;30;20061;-80
2021/01/18 05:08:02;;;;;;;4.13;2.47;;;4.50;99.90;;;;;;4724164;30;20498;-79
2021/01/18 05:10:30;;;;;;;6.35;2.10;;;4.60;99.90;;;;;;4734266;30;20046;-80
2021/01/18 05:12:57;;;;;;;4.10;2.53;;;4.60;99.90;;;;;;4721633;30;20039;-80
2021/01/18 05:15:25;;;;;;;4.72;2.83;;;4.70;99.90;;;;;;4712547;30;20057;-80
2021/01/18 05:17:57;;;;;;;3.65;2.15;;;4.70;99.90;;;;;;4712787;30;20615;-80
2021/01/18 05:20:24;;;;;;;3.97;2.28;;;4.80;99.90;;;;;;4713052;30;20041;-80
2021/01/18 05:22:51;;;;;;;5.43;2.60;;;4.80;99.90;;;;;;4731612;30;20160;-80
2021/01/18 05:25:18;;;;;;;4.22;2.03;;;4.80;99.90;;;;;;4729766;30;20037;-80
2021/01/18 05:28:01;;;;;;;4.13;1.92;;;4.70;99.90;;;;;;4716671;30;20112;-80
2021/01/18 05:30:30;;;;;;;4.53;3.03;;;4.70;99.90;;;;;;4720088;30;20513;-80
2021/01/18 05:33:10;;;;;;;3.42;1.98;;;4.70;99.90;;;;;;4745749;30;20033;-80
2021/01/18 05:35:57;;;;;;;4.88;2.40;;;4.70;99.90;;;;;;4725898;30;20128;-80
2021/01/18 05:38:23;;;;;;;4.47;2.00;;;4.70;99.90;;;;;;4715317;30;20051;-79
2021/01/18 05:40:51;;;;;;;4.57;2.40;;;4.70;99.90;;;;;;4715672;30;20033;-80
2021/01/18 05:43:18;;;;;;;4.18;2.40;;;4.70;99.90;;;;;;4744307;30;20043;-79
2021/01/18 05:45:48;;;;;;;3.08;1.90;;;4.80;99.90;;;;;;4732900;30;20032;-80
2021/01/18 05:48:25;;;;;;;5.85;2.50;;;4.80;99.90;;;;;;4732031;30;20453;-80
2021/01/18 05:50:59;;;;;;;5.55;3.05;;;4.70;99.90;;;;;;4732785;30;20037;-80
2021/01/18 05:53:29;;;;;;;3.97;2.35;;;4.60;99.90;;;;;;4745773;30;20036;-80
2021/01/18 05:55:56;;;;;;;5.07;2.47;;;4.40;99.90;;;;;;4735835;30;20465;-80
2021/01/18 05:58:30;;;;;;;5.75;2.70;;;4.30;99.90;;;;;;4732193;30;20037;-80
2021/01/18 06:00:57;;;;;;;5.72;2.20;;;4.20;99.90;;;;;;4732329;30;20036;-80
2021/01/18 06:03:31;;;;;;;4.38;1.92;;;4.20;99.90;;;;;;4729283;30;20028;-80
2021/01/18 06:05:58;;;;;;;3.08;1.70;;;4.00;99.90;;;;;;4734310;30;20037;-80
2021/01/18 06:08:26;;;;;;;5.47;2.33;;;4.00;99.90;;;;;;4731740;30;20145;-80
2021/01/18 06:10:53;;;;;;;3.95;2.15;;;4.00;99.90;;;;;;4732466;30;20035;-80
2021/01/18 06:13:28;;;;;;;5.00;2.78;;;4.00;99.90;;;;;;4734747;30;20043;-80
2021/01/18 06:16:06;;;;;;;4.03;2.20;;;4.00;99.90;;;;;;4717300;30;20069;-80
2021/01/18 06:18:37;;;;;;;4.00;2.42;;;4.00;99.90;;;;;;4725368;30;20121;-80
2021/01/18 06:21:05;;;;;;;4.32;2.42;;;4.00;99.90;;;;;;4732109;30;20073;-81
2021/01/18 06:23:31;;;;;;;5.43;2.47;;;4.00;99.90;;;;;;4739299;30;20505;-80
2021/01/18 06:25:58;;;;;;;4.63;3.00;;;4.00;99.90;;;;;;4740090;30;20115;-79
2021/01/18 06:28:28;;;;;;;6.05;2.90;;;4.10;99.90;;;;;;4733157;30;20491;-80
2021/01/18 06:30:56;;;;;;;6.18;2.47;;;4.10;99.90;;;;;;4731861;30;20040;-80
2021/01/18 06:33:37;;;;;;;6.25;3.10;;;4.20;99.90;;;;;;4735217;30;20066;-80
2021/01/18 06:36:23;;;;;;;5.80;2.67;;;4.20;99.90;;;;;;4725948;30;20060;-80
2021/01/18 06:39:00;;;;;;;6.57;3.25;;;4.20;99.90;;;;;;4732069;30;20059;-80
2021/01/18 06:41:39;;;;;;;11.02;3.00;;;4.30;99.90;;;;;;4699405;30;20151;-80
2021/01/18 06:44:06;;;;;;;4.80;2.95;;;4.30;99.90;;;;;;4727226;30;20094;-81
2021/01/18 06:46:37;;;;;;;4.22;2.42;;;4.30;99.90;;;;;;4740578;30;20043;-80
2021/01/18 06:49:04;;;;;;;5.72;3.70;;;4.40;99.90;;;;;;4732949;30;20051;-79
2021/01/18 06:51:31;;;;;;;5.80;3.03;;;4.40;99.90;;;;;;4731134;30;20043;-79
2021/01/18 06:53:59;;;;;;;4.85;2.67;;;4.40;99.90;;;;;;4735553;30;20481;-81
2021/01/18 06:56:38;;;;;;;6.32;3.00;;;4.40;99.90;;;;;;4743913;30;20538;-80
2021/01/18 06:59:13;;;;;;;5.00;3.15;;;4.30;99.90;;;;;;4732974;30;20043;-79
2021/01/18 07:01:40;;;;;;;9.00;3.58;;;4.30;99.90;;;;;;4718083;30;20033;-79
2021/01/18 07:04:11;;;;;;;5.78;3.42;;;4.30;99.90;;;;;;4725751;30;20032;-80
2021/01/18 07:06:43;;;;;;;5.70;3.40;;;4.40;99.90;;;;;;4725986;30;20044;-80
2021/01/18 07:09:10;;;;;;;6.05;3.45;;;4.40;99.90;;;;;;4716079;30;20041;-80
2021/01/18 07:11:37;;;;;;;7.20;3.60;;;4.40;99.90;;;;;;4710836;30;20028;-80
2021/01/18 07:14:09;;;;;;;5.85;3.30;;;4.30;99.90;;;;;;4731014;30;20051;-80
2021/01/18 07:16:36;;;;;;;6.85;3.72;;;4.30;99.90;;;;;;4747605;30;20425;-80
2021/01/18 07:19:04;;;;;;;7.90;3.75;;;4.30;99.90;;;;;;4734087;30;20157;-80
2021/01/18 07:21:41;;;;;;;6.75;3.08;;;4.30;99.90;;;;;;4724615;30;20044;-80
2021/01/18 07:24:12;;;;;;;7.97;3.65;;;4.40;99.90;;;;;;4732369;30;20049;-80
2021/01/18 07:26:52;;;;;;;6.65;3.75;;;4.40;99.90;;;;;;4745526;30;20440;-80
2021/01/18 07:29:21;;;;;;;9.68;4.28;;;4.40;99.90;;;;;;4748605;30;20489;-79
2021/01/18 07:31:59;;;;;;;7.30;4.07;;;4.40;99.90;;;;;;4732639;30;20550;-80
2021/01/18 07:34:47;;;;;;;7.95;3.65;;;4.40;99.90;;;;;;4736942;30;20121;-79
2021/01/18 07:37:19;;;;;;;8.27;4.00;;;4.40;99.90;;;;;;4740004;30;20033;-79
2021/01/18 07:39:46;;;;;;;9.73;3.63;;;4.50;99.90;;;;;;4723840;30;20043;-80
2021/01/18 07:42:27;;;;;;;6.03;3.30;;;4.50;99.90;;;;;;4738629;30;20043;-80
2021/01/18 07:45:15;;;;;;;7.40;3.60;;;4.60;99.90;;;;;;4743691;30;20028;-80
2021/01/18 07:47:53;;;;;;;7.68;4.05;;;4.70;99.90;;;;;;4739169;30;20495;-79
2021/01/18 07:50:30;;;;;;;6.63;2.95;;;4.60;99.90;;;;;;4721993;30;20452;-80
2021/01/18 07:53:02;;;;;;;5.90;3.28;;;4.70;99.90;;;;;;4712500;30;20072;-79
2021/01/18 07:55:28;;;;;;;6.90;3.28;;;4.70;99.90;;;;;;4717450;30;20173;-76
2021/01/18 07:57:54;;;;;;;6.22;3.20;;;4.80;99.90;;;;;;4745227;30;20052;-77
2021/01/18 08:00:23;;;;;;;7.93;3.45;;;4.90;99.90;;;;;;4749234;30;20046;-77
2021/01/18 08:02:54;;;;;;;6.30;3.28;;;5.00;99.90;;;;;;4748206;30;20109;-79
2021/01/18 08:05:37;;;;;;;6.45;3.80;;;5.10;99.90;;;;;;4726466;30;20086;-76
2021/01/18 08:08:26;;;;;;;6.82;2.92;;;5.20;99.90;;;;;;4722952;30;20047;-76
2021/01/18 08:10:56;;;;;;;4.47;3.17;;;5.30;99.90;;;;;;4718548;30;20111;-77
2021/01/18 08:13:42;;;;;;;4.70;2.85;;;5.30;99.90;;;;;;4731096;30;20040;-77
2021/01/18 08:16:17;;;;;;;5.97;3.00;;;5.40;99.90;;;;;;4724640;30;20420;-77
2021/01/18 08:18:53;;;;;;;10.30;3.80;;;5.40;99.90;;;;;;4738681;30;20036;-77
2021/01/18 08:21:59;;;;;;;8.45;4.53;;;5.40;99.90;;;;;;4727722;30;20059;-77
2021/01/18 08:24:28;;;;;;;7.20;4.15;;;5.40;99.90;;;;;;4728422;30;20111;-77
2021/01/18 08:27:05;;;;;;;8.90;5.00;;;5.50;99.90;;;;;;4729183;30;20045;-77
2021/01/18 08:29:38;;;;;;;8.73;5.18;;;5.60;99.90;;;;;;4724971;30;20520;-76
2021/01/18 08:32:23;;;;;;;10.07;4.95;;;5.60;99.90;;;;;;4731396;30;20033;-77
2021/01/18 08:34:52;;;;;;;9.75;5.25;;;5.70;99.90;;;;;;4731422;30;20506;-77
2021/01/18 08:37:19;;;;;;;7.43;4.47;;;5.50;99.90;;;;;;4730883;30;20108;-77
2021/01/18 08:39:52;;;;;;;11.40;5.97;;;5.40;99.90;;;;;;4733298;30;20039;-77
2021/01/18 08:42:36;;;;;;;12.00;7.10;;;5.30;99.90;;;;;;4717209;30;20029;-77
2021/01/18 08:45:09;;;;;;;11.07;5.72;;;5.20;99.90;;;;;;4718021;30;20369;-77
2021/01/18 08:47:47;;;;;;;9.52;5.65;;;5.20;99.90;;;;;;4728314;30;20432;-77
2021/01/18 08:50:27;;;;;;;9.65;5.50;;;5.20;99.90;;;;;;4730072;30;20048;-77
2021/01/18 08:52:56;;;;;;;9.68;5.40;;;5.20;99.90;;;;;;4716961;30;20036;-76
2021/01/18 08:55:28;;;;;;;10.30;5.22;;;5.20;99.90;;;;;;4730899;30;20040;-77
2021/01/18 08:58:01;;;;;;;9.73;4.47;;;5.20;99.90;;;;;;4731198;30;20043;-77
2021/01/18 09:00:44;;;;;;;8.02;5.50;;;5.20;99.90;;;;;;4730483;30;20064;-76
2021/01/18 09:03:20;;;;;;;9.38;5.15;;;5.10;99.90;;;;;;4730901;30;20434;-77
2021/01/18 09:05:47;;;;;;;8.43;4.85;;;5.10;99.90;;;;;;4733026;30;20407;-77
2021/01/18 09:08:16;;;;;;;10.07;4.78;;;5.00;99.90;;;;;;4733832;30;20048;-76
2021/01/18 09:10:55;;;;;;;9.18;4.53;;;5.10;99.90;;;;;;4734736;30;20037;-76
2021/01/18 09:13:24;;;;;;;7.90;4.40;;;5.10;99.90;;;;;;4731764;30;20070;-77
2021/01/18 09:15:52;;;;;;;8.98;5.47;;;5.10;99.90;;;;;;4734193;30;20056;-77
2021/01/18 09:18:18;;;;;;;9.05;5.13;;;5.00;99.90;;;;;;4733863;30;20040;-77
2021/01/18 09:20:45;;;;;;;15.65;8.43;;;5.00;99.90;;;;;;4736868;30;20076;-77
2021/01/18 09:23:13;;;;;;;59.53;24.33;;;5.00;99.90;;;;;;4721071;30;20052;-77
2021/01/18 09:25:40;;;;;;;67.80;24.05;;;4.90;99.90;;;;;;4722601;30;20040;-76
2021/01/18 09:28:09;;;;;;;57.55;23.38;;;4.90;99.90;;;;;;4728764;30;20131;-76
2021/01/18 09:30:39;;;;;;;40.58;17.83;;;4.90;99.90;;;;;;4733581;30;20199;-76
2021/01/18 09:33:09;;;;;;;23.85;11.65;;;4.90;99.90;;;;;;4741985;30;20044;-75
2021/01/18 09:35:41;;;;;;;24.65;10.80;;;4.80;99.90;;;;;;4733985;30;20032;-77
2021/01/18 09:38:09;;;;;;;16.13;7.82;;;4.80;99.90;;;;;;4732865;30;20024;-76
2021/01/18 09:40:39;;;;;;;9.80;6.00;;;4.70;99.90;;;;;;4734143;30;20848;-76
2021/01/18 09:43:06;;;;;;;14.90;6.10;;;4.50;99.90;;;;;;4733750;30;20025;-77
2021/01/18 09:45:33;;;;;;;23.65;11.80;;;4.50;99.90;;;;;;4733381;30;20445;-76
2021/01/18 09:48:02;;;;;;;20.30;9.68;;;4.40;99.90;;;;;;4731612;30;20075;-77
2021/01/18 09:50:29;;;;;;;14.25;9.38;;;4.50;99.90;;;;;;4732422;30;20043;-77
2021/01/18 09:52:55;;;;;;;12.02;6.10;;;4.60;99.90;;;;;;4733411;30;20120;-77
2021/01/18 09:55:25;;;;;;;13.40;6.95;;;4.70;99.90;;;;;;4733582;30;20037;-77
2021/01/18 09:57:56;;;;;;;5.47;3.67;;;4.80;99.90;;;;;;4733537;30;20033;-77
2021/01/18 10:00:27;;;;;;;4.75;3.45;;;4.80;99.90;;;;;;4734459;30;20036;-76
2021/01/18 10:02:54;;;;;;;5.43;3.60;;;5.00;99.90;;;;;;4733415;30;20432;-77
2021/01/18 10:05:37;;;;;;;4.57;2.83;;;5.30;99.90;;;;;;4733342;30;20391;-77
2021/01/18 10:08:24;;;;;;;11.82;3.20;;;5.50;99.90;;;;;;4733377;30;20180;-77
2021/01/18 10:10:51;;;;;;;4.72;3.33;;;5.60;99.90;;;;;;4731678;30;20459;-76
2021/01/18 10:13:19;;;;;;;7.60;2.85;;;5.60;99.90;;;;;;4716665;30;20041;-79
2021/01/18 10:15:48;;;;;;;9.23;3.45;;;5.40;99.90;;;;;;4720168;30;20160;-80
2021/01/18 10:18:38;;;;;;;4.00;2.60;;;5.30;99.90;;;;;;4718606;30;20112;-79
2021/01/18 10:21:06;;;;;;;11.48;5.75;;;5.30;99.90;;;;;;4724643;30;20037;-79
2021/01/18 10:23:34;;;;;;;7.88;3.42;;;5.20;99.90;;;;;;4715780;30;20048;-79
2021/01/18 10:26:24;;;;;;;17.80;8.20;;;5.20;99.90;;;;;;4718106;30;20031;-79
2021/01/18 10:28:53;;;;;;;7.35;4.72;;;5.20;99.90;;;;;;4730194;30;20051;-79
2021/01/18 10:31:24;;;;;;;8.20;4.40;;;5.20;99.90;;;;;;4732545;30;20033;-80
2021/01/18 10:34:08;;;;;;;6.35;3.40;;;5.20;99.90;;;;;;4751037;30;20042;-79
2021/01/18 10:36:34;;;;;;;6.30;3.05;;;5.10;99.90;;;;;;4751059;30;20498;-80
2021/01/18 10:39:01;;;;;;;7.05;3.45;;;5.10;99.90;;;;;;4749929;30;20166;-79
2021/01/18 10:41:32;;;;;;;7.28;3.50;;;5.10;99.90;;;;;;4734871;30;20039;-79
2021/01/18 10:44:06;;;;;;;5.57;3.67;;;5.10;99.90;;;;;;4732471;30;20033;-80
2021/01/18 10:46:33;;;;;;;5.97;2.88;;;5.00;99.90;;;;;;4733095;30;20044;-80
2021/01/18 10:49:00;;;;;;;2.80;1.77;;;4.90;99.90;;;;;;4732891;30;20048;-80
2021/01/18 10:51:29;;;;;;;3.28;2.55;;;4.80;99.90;;;;;;4737476;30;20110;-80
2021/01/18 10:54:00;;;;;;;4.30;2.20;;;4.70;99.90;;;;;;4717483;30;20445;-79
2021/01/18 10:56:34;;;;;;;3.05;1.98;;;4.60;99.90;;;;;;4717129;30;20043;-80
2021/01/18 10:59:00;;;;;;;;;;;4.60;99.90;;;;;;4732886;30;20028;-80
2021/01/18 11:01:27;;;;;;;5.45;2.30;;;4.70;99.90;;;;;;4726846;30;19914;-80
2021/01/18 11:04:02;;;;;;;4.22;2.10;;;4.80;99.90;;;;;;4734427;30;20134;-79
2021/01/18 11:06:34;;;;;;;4.53;2.03;;;4.80;99.90;;;;;;4749132;30;20035;-79
2021/01/18 11:09:00;;;;;;;4.10;2.80;;;4.90;99.90;;;;;;4742183;30;20040;-79
2021/01/18 11:11:27;;;;;;;3.80;1.90;;;5.00;99.90;;;;;;4724139;30;20501;-80
2021/01/18 11:14:08;;;;;;;4.32;2.47;;;5.10;99.90;;;;;;4748758;30;20476;-80
2021/01/18 11:16:35;;;;;;;6.43;3.08;;;5.30;99.90;;;;;;4749816;30;20060;-80
2021/01/18 11:19:07;;;;;;;3.92;3.10;;;5.50;99.90;;;;;;4744955;30;20135;-80
2021/01/18 11:21:33;;;;;;;5.57;2.85;;;5.60;99.90;;;;;;4716039;30;20040;-80
2021/01/18 11:23:59;;;;;;;4.05;2.42;;;5.60;99.90;;;;;;4715024;30;20037;-80
2021/01/18 11:26:25;;;;;;;3.33;2.33;;;5.60;99.90;;;;;;4713744;30;20087;-80
2021/01/18 11:28:52;;;;;;;3.25;2.33;;;5.60;99.90;;;;;;4714294;30;20049;-80
2021/01/18 11:31:18;;;;;;;4.68;2.67;;;5.50;99.90;;;;;;4733301;30;20040;-80
2021/01/18 11:33:45;;;;;;;10.27;4.20;;;5.60;99.90;;;;;;4745245;30;20043;-80
2021/01/18 11:36:11;;;;;;;6.63;3.72;;;5.70;99.90;;;;;;4730916;30;20082;-80
2021/01/18 11:38:39;;;;;;;6.82;3.00;;;5.70;99.90;;;;;;4732346;30;20109;-80
2021/01/18 11:41:05;;;;;;;6.40;3.80;;;5.80;99.90;;;;;;4730501;30;20120;-80
2021/01/18 11:43:34;;;;;;;5.38;3.05;;;5.80;99.90;;;;;;4746494;30;20456;-80
2021/01/18 11:46:03;;;;;;;5.68;3.13;;;5.90;99.90;;;;;;4749646;30;20032;-80
2021/01/18 11:48:29;;;;;;;10.35;3.78;;;6.10;99.90;;;;;;4748512;30;20139;-80
2021/01/18 11:50:56;;;;;;;12.57;6.45;;;6.20;99.90;;;;;;4737836;30;20040;-80
2021/01/18 11:53:21;;;;;;;6.35;3.40;;;6.30;99.90;;;;;;4743795;30;20094;-80
2021/01/18 11:55:49;;;;;;;39.75;16.48;;;6.30;99.90;;;;;;4734466;30;20040;-80
2021/01/18 11:58:15;;;;;;;34.63;17.63;;;6.30;99.90;;;;;;4747436;30;20043;-80
2021/01/18 12:00:41;;;;;;;27.60;13.07;;;6.30;99.90;;;;;;4741972;30;20029;-81
2021/01/18 12:03:07;;;;;;;10.95;6.13;;;6.30;99.90;;;;;;4739773;30;20025;-80
2021/01/18 12:05:34;;;;;;;13.88;7.63;;;6.40;99.90;;;;;;4733616;30;20131;-80
2021/01/18 12:08:02;;;;;;;16.45;7.85;;;6.40;99.90;;;;;;4747927;30;20055;-80
2021/01/18 12:10:29;;;;;;;3.35;2.47;;;6.40;99.90;;;;;;4731234;30;20123;-80
2021/01/18 12:12:56;;;;;;;6.95;3.70;;;6.70;99.90;;;;;;4734277;30;20036;-80
2021/01/18 12:15:22;;;;;;;5.22;2.38;;;6.70;99.90;;;;;;4747884;30;20056;-80
2021/01/18 12:17:48;;;;;;;11.45;6.97;;;6.80;99.90;;;;;;4748420;30;20044;-81
2021/01/18 12:20:17;;;;;;;5.32;3.40;;;6.70;99.90;;;;;;4749295;30;20364;-81
2021/01/18 12:22:44;;;;;;;8.48;5.20;;;6.70;99.90;;;;;;4733737;30;20123;-80
2021/01/18 12:25:11;;;;;;;5.80;4.15;;;6.70;99.90;;;;;;4729795;30;20043;-80
2021/01/18 12:27:37;;;;;;;6.95;4.88;;;6.70;99.90;;;;;;4741321;30;20534;-81
2021/01/18 12:30:04;;;;;;;5.70;2.67;;;6.70;99.90;;;;;;4733208;30;20044;-80
2021/01/18 12:32:31;;;;;;;4.93;2.55;;;6.60;99.90;;;;;;4736306;30;20509;-81
2021/01/18 12:34:57;;;;;;;4.57;2.35;;;6.50;99.90;;;;;;4744834;30;20517;-80
2021/01/18 12:37:23;;;;;;;5.97;2.78;;;6.30;99.90;;;;;;4748198;30;20082;-80
2021/01/18 12:39:49;;;;;;;4.95;2.50;;;6.10;99.90;;;;;;4748779;30;20032;-80
2021/01/18 12:42:15;;;;;;;6.78;3.30;;;5.90;99.90;;;;;;4745685;30;20064;-80
2021/01/18 12:44:41;;;;;;;5.20;3.00;;;5.80;99.90;;;;;;4742844;30;20044;-80
2021/01/18 12:47:08;;;;;;;5.95;2.83;;;5.70;99.90;;;;;;4751336;30;20036;-80
2021/01/18 12:49:34;;;;;;;6.35;3.50;;;5.70;99.90;;;;;;4752627;30;20131;-80
2021/01/18 12:52:00;;;;;;;4.93;3.17;;;5.70;99.90;;;;;;4748418;30;20116;-80
2021/01/18 12:54:26;;;;;;;7.65;4.03;;;5.70;99.90;;;;;;4738354;30;20043;-80
2021/01/18 12:56:53;;;;;;;8.05;3.17;;;5.70;99.90;;;;;;4751637;30;20359;-80
2021/01/18 12:59:19;;;;;;;4.45;2.95;;;5.70;99.90;;;;;;4752311;30;20047;-80
2021/01/18 13:01:46;;;;;;;7.13;4.00;;;5.70;99.90;;;;;;4752603;30;20107;-80
2021/01/18 13:04:12;;;;;;;8.60;4.15;;;5.70;99.90;;;;;;4736730;30;20065;-80
2021/01/18 13:06:39;;;;;;;5.78;3.65;;;5.70;99.90;;;;;;4751031;30;20079;-80
2021/01/18 13:09:07;;;;;;;7.63;3.22;;;5.70;99.90;;;;;;4735515;30;20047;-81
2021/01/18 13:11:33;;;;;;;5.93;3.20;;;5.70;99.90;;;;;;4717375;30;20045;-81
2021/01/18 13:14:00;;;;;;;7.40;3.28;;;5.60;99.90;;;;;;4715678;30;20380;-80
2021/01/18 13:16:27;;;;;;;8.15;3.72;;;5.60;99.90;;;;;;4744444;30;20456;-81